createdAt,value
2022-10-01T00:01:18.059Z,16.13
2022-10-01T00:03:45.271Z,16.13
2022-10-01T00:06:18.111Z,16.16
2022-10-01T00:08:49.039Z,16.15
2022-10-01T00:11:25.475Z,16.21
2022-10-01T00:13:53.720Z,16.21
2022-10-01T00:16:23.904Z,16.19
2022-10-01T00:18:51.327Z,16.18
2022-10-01T00:21:21.414Z,16.18
2022-10-01T00:23:53.484Z,16.07
2022-10-01T00:26:23.150Z,16.05
2022-10-01T00:28:55.876Z,16.01
2022-10-01T00:31:23.118Z,15.95
2022-10-01T00:33:53.303Z,15.95
2022-10-01T00:36:20.452Z,15.96
2022-10-01T00:38:48.475Z,16.00
2022-10-01T00:41:17.074Z,15.98
2022-10-01T00:44:25.322Z,15.81
2022-10-01T00:46:54.142Z,15.68
2022-10-01T00:49:26.355Z,15.67
2022-10-01T00:52:02.698Z,15.69
2022-10-01T00:54:39.624Z,15.71
2022-10-01T00:57:07.503Z,15.72
2022-10-01T00:59:35.658Z,15.74
2022-10-01T01:02:02.549Z,15.73
2022-10-01T01:04:29.731Z,15.70
2022-10-01T01:07:00.006Z,15.68
2022-10-01T01:09:33.911Z,15.65
2022-10-01T01:12:26.847Z,15.58
2022-10-01T01:15:49.099Z,15.53
2022-10-01T01:18:28.581Z,15.51
2022-10-01T01:21:43.733Z,15.49
2022-10-01T01:24:46.362Z,15.34
2022-10-01T01:27:30.447Z,15.30
2022-10-01T01:30:18.543Z,15.29
2022-10-01T01:32:55.437Z,15.30
2022-10-01T01:35:31.757Z,15.33
2022-10-01T01:38:03.510Z,15.30
2022-10-01T01:40:39.065Z,15.27
2022-10-01T01:43:11.346Z,15.20
2022-10-01T01:45:40.515Z,15.06
2022-10-01T01:48:10.146Z,15.02
2022-10-01T01:50:52.593Z,14.97
2022-10-01T01:53:20.422Z,14.89
2022-10-01T01:55:49.472Z,14.89
2022-10-01T01:58:20.405Z,14.84
2022-10-01T02:00:52.578Z,14.78
2022-10-01T02:03:26.049Z,14.77
2022-10-01T02:06:33.604Z,14.78
2022-10-01T02:09:11.601Z,14.76
2022-10-01T02:11:50.687Z,14.75
2022-10-01T02:14:37.301Z,14.81
2022-10-01T02:17:29.619Z,14.79
2022-10-01T02:20:05.939Z,14.77
2022-10-01T02:23:25.024Z,14.77
2022-10-01T02:25:58.588Z,14.73
2022-10-01T02:28:25.660Z,14.76
2022-10-01T02:30:56.228Z,14.76
2022-10-01T02:33:30.932Z,14.83
2022-10-01T02:35:59.861Z,14.81
2022-10-01T02:38:28.458Z,14.86
2022-10-01T02:41:01.178Z,14.92
2022-10-01T02:43:33.227Z,15.00
2022-10-01T02:46:07.131Z,15.01
2022-10-01T02:48:34.429Z,15.07
2022-10-01T02:51:35.030Z,15.11
2022-10-01T02:54:38.902Z,15.40
2022-10-01T02:57:24.935Z,15.05
2022-10-01T02:59:52.591Z,14.99
2022-10-01T03:02:20.735Z,15.03
2022-10-01T03:04:48.682Z,15.01
2022-10-01T03:07:16.945Z,14.96
2022-10-01T03:09:43.947Z,14.95
2022-10-01T03:12:11.137Z,14.85
2022-10-01T03:14:39.593Z,14.61
2022-10-01T03:17:07.417Z,14.45
2022-10-01T03:19:34.365Z,14.39
2022-10-01T03:22:01.290Z,14.43
2022-10-01T03:24:28.498Z,14.50
2022-10-01T03:26:57.008Z,14.60
2022-10-01T03:29:24.952Z,14.68
2022-10-01T03:31:52.420Z,14.71
2022-10-01T03:34:19.691Z,14.74
2022-10-01T03:36:47.172Z,14.75
2022-10-01T03:39:15.356Z,14.70
2022-10-01T03:41:42.284Z,14.59
2022-10-01T03:44:09.195Z,14.54
2022-10-01T03:46:36.253Z,14.59
2022-10-01T03:49:04.044Z,14.67
2022-10-01T03:51:31.896Z,14.75
2022-10-01T03:53:59.412Z,14.77
2022-10-01T03:56:26.518Z,14.79
2022-10-01T03:58:53.502Z,14.77
2022-10-01T04:01:20.973Z,14.77
2022-10-01T04:03:49.424Z,14.73
2022-10-01T04:06:16.980Z,14.61
2022-10-01T04:08:44.322Z,14.52
2022-10-01T04:11:11.813Z,14.34
2022-10-01T04:13:38.736Z,14.22
2022-10-01T04:16:07.227Z,14.23
2022-10-01T04:18:34.441Z,14.26
2022-10-01T04:21:01.558Z,14.29
2022-10-01T04:23:28.557Z,14.31
2022-10-01T04:25:59.266Z,14.34
2022-10-01T04:28:26.331Z,14.38
2022-10-01T04:31:13.267Z,14.48
2022-10-01T04:33:40.403Z,14.54
2022-10-01T04:36:07.531Z,14.60
2022-10-01T04:38:34.951Z,14.70
2022-10-01T04:41:01.942Z,14.73
2022-10-01T04:43:28.823Z,14.77
2022-10-01T04:45:55.853Z,14.81
2022-10-01T04:48:22.846Z,14.88
2022-10-01T04:50:49.873Z,15.01
2022-10-01T04:53:16.865Z,15.03
2022-10-01T04:55:43.909Z,15.07
2022-10-01T04:58:10.949Z,15.16
2022-10-01T05:00:38.031Z,15.23
2022-10-01T05:03:05.028Z,15.32
2022-10-01T05:05:33.282Z,15.30
2022-10-01T05:08:00.359Z,15.29
2022-10-01T05:10:27.770Z,15.34
2022-10-01T05:12:54.907Z,15.30
2022-10-01T05:15:22.418Z,15.35
2022-10-01T05:17:49.395Z,15.43
2022-10-01T05:20:19.037Z,15.55
2022-10-01T05:22:47.511Z,15.70
2022-10-01T05:25:14.769Z,15.78
2022-10-01T05:27:42.079Z,15.91
2022-10-01T05:30:11.014Z,16.04
2022-10-01T05:32:38.347Z,16.14
2022-10-01T05:35:07.334Z,16.25
2022-10-01T05:37:34.710Z,16.18
2022-10-01T05:40:02.266Z,16.23
2022-10-01T05:42:29.326Z,16.33
2022-10-01T05:44:56.354Z,16.48
2022-10-01T05:47:23.595Z,16.59
2022-10-01T05:49:50.608Z,16.70
2022-10-01T05:52:17.622Z,16.84
2022-10-01T05:54:44.652Z,16.85
2022-10-01T05:57:11.906Z,16.86
2022-10-01T05:59:38.841Z,16.92
2022-10-01T06:02:05.906Z,16.95
2022-10-01T06:04:34.790Z,17.06
2022-10-01T06:07:04.877Z,17.23
2022-10-01T06:09:31.878Z,17.31
2022-10-01T06:11:58.859Z,17.42
2022-10-01T06:14:25.874Z,17.51
2022-10-01T06:16:55.752Z,17.64
2022-10-01T06:19:22.685Z,17.54
2022-10-01T06:21:49.677Z,17.74
2022-10-01T06:24:16.614Z,17.45
2022-10-01T06:26:44.014Z,17.33
2022-10-01T06:29:11.137Z,17.28
2022-10-01T06:31:38.675Z,17.03
2022-10-01T06:34:05.961Z,17.18
2022-10-01T06:36:34.148Z,17.06
2022-10-01T06:39:01.154Z,17.05
2022-10-01T06:41:28.199Z,17.16
2022-10-01T06:43:55.196Z,17.13
2022-10-01T06:46:22.219Z,17.21
2022-10-01T06:48:49.297Z,17.35
2022-10-01T06:51:16.126Z,17.44
2022-10-01T06:53:43.103Z,17.54
2022-10-01T06:56:10.141Z,17.69
2022-10-01T06:58:37.608Z,17.85
2022-10-01T07:01:04.657Z,18.03
2022-10-01T07:03:31.834Z,18.13
2022-10-01T07:06:05.916Z,18.26
2022-10-01T07:08:33.516Z,18.38
2022-10-01T07:11:02.892Z,18.52
2022-10-01T07:13:30.532Z,18.68
2022-10-01T07:15:57.431Z,18.86
2022-10-01T07:18:24.528Z,19.05
2022-10-01T07:20:51.619Z,19.19
2022-10-01T07:23:18.651Z,19.33
2022-10-01T07:25:45.870Z,19.49
2022-10-01T07:28:18.827Z,19.64
2022-10-01T07:30:56.757Z,19.83
2022-10-01T07:33:23.831Z,20.03
2022-10-01T07:35:50.816Z,20.28
2022-10-01T07:38:17.877Z,20.36
2022-10-01T07:40:44.919Z,20.48
2022-10-01T07:43:14.824Z,20.51
2022-10-01T07:45:41.863Z,20.54
2022-10-01T07:48:08.890Z,20.68
2022-10-01T07:50:35.959Z,20.79
2022-10-01T07:53:02.953Z,20.91
2022-10-01T07:55:30.952Z,21.01
2022-10-01T07:58:01.658Z,21.10
2022-10-01T08:00:30.940Z,21.16
2022-10-01T08:02:57.908Z,21.17
2022-10-01T08:05:29.075Z,21.14
2022-10-01T08:08:07.503Z,21.20
2022-10-01T08:10:36.795Z,21.22
2022-10-01T08:13:14.983Z,21.24
2022-10-01T08:15:47.598Z,21.12
2022-10-01T08:18:14.854Z,20.99
2022-10-01T08:20:41.864Z,21.01
2022-10-01T08:23:11.692Z,21.10
2022-10-01T08:25:39.866Z,21.12
2022-10-01T08:28:07.872Z,21.18
2022-10-01T08:30:37.850Z,21.19
2022-10-01T08:33:04.921Z,21.15
2022-10-01T08:35:31.963Z,21.11
2022-10-01T08:38:03.201Z,21.02
2022-10-01T08:40:36.901Z,20.94
2022-10-01T08:43:07.293Z,21.01
2022-10-01T08:45:48.027Z,21.15
2022-10-01T08:48:28.293Z,21.21
2022-10-01T08:51:03.473Z,21.47
2022-10-01T08:53:36.823Z,21.31
2022-10-01T08:56:05.679Z,20.91
2022-10-01T08:58:43.606Z,20.64
2022-10-01T09:01:12.094Z,20.54
2022-10-01T09:03:39.532Z,20.64
2022-10-01T09:06:27.890Z,20.75
2022-10-01T09:09:38.025Z,20.75
2022-10-01T09:12:42.581Z,21.13
2022-10-01T09:15:33.317Z,21.20
2022-10-01T09:19:01.873Z,21.03
2022-10-01T09:21:44.490Z,20.98
2022-10-01T09:24:18.041Z,20.82
2022-10-01T09:26:51.077Z,20.73
2022-10-01T09:29:26.169Z,20.64
2022-10-01T09:31:55.259Z,20.67
2022-10-01T09:34:37.498Z,20.82
2022-10-01T09:37:32.774Z,20.82
2022-10-01T09:40:58.222Z,20.77
2022-10-01T09:43:31.377Z,20.74
2022-10-01T09:45:58.818Z,20.72
2022-10-01T09:48:55.424Z,20.63
2022-10-01T09:51:29.175Z,20.53
2022-10-01T09:54:32.666Z,20.49
2022-10-01T09:57:14.144Z,20.48
2022-10-01T09:59:51.138Z,20.51
2022-10-01T10:02:25.791Z,20.54
2022-10-01T10:05:03.790Z,20.64
2022-10-01T10:07:32.629Z,20.80
2022-10-01T10:10:16.750Z,20.90
2022-10-01T10:12:44.325Z,20.91
2022-10-01T10:15:18.108Z,20.93
2022-10-01T10:17:50.271Z,20.87
2022-10-01T10:20:39.984Z,20.75
2022-10-01T10:23:16.253Z,20.64
2022-10-01T10:25:43.592Z,20.75
2022-10-01T10:28:21.613Z,20.87
2022-10-01T10:30:49.176Z,20.81
2022-10-01T10:33:18.324Z,20.71
2022-10-01T10:35:45.268Z,20.60
2022-10-01T10:38:18.806Z,20.53
2022-10-01T10:40:46.219Z,20.51
2022-10-01T10:43:21.186Z,20.44
2022-10-01T10:45:56.562Z,20.34
2022-10-01T10:48:31.831Z,20.32
2022-10-01T10:51:02.093Z,20.30
2022-10-01T10:53:39.803Z,20.26
2022-10-01T10:56:24.411Z,20.29
2022-10-01T10:58:52.734Z,20.32
2022-10-01T11:01:28.733Z,20.44
2022-10-01T11:03:59.022Z,20.53
2022-10-01T11:06:26.229Z,20.55
2022-10-01T11:09:02.214Z,20.70
2022-10-01T11:12:05.551Z,20.82
2022-10-01T11:15:09.497Z,20.93
2022-10-01T11:18:16.563Z,20.97
2022-10-01T11:21:37.383Z,20.89
2022-10-01T11:24:46.319Z,20.83
2022-10-01T11:27:59.004Z,20.78
2022-10-01T11:30:37.580Z,20.75
2022-10-01T11:33:39.161Z,20.70
2022-10-01T11:36:55.506Z,20.62
2022-10-01T11:39:26.598Z,20.54
2022-10-01T11:42:03.177Z,20.50
2022-10-01T11:44:38.203Z,20.53
2022-10-01T11:47:32.785Z,20.67
2022-10-01T11:50:22.712Z,20.81
2022-10-01T11:53:00.802Z,21.01
2022-10-01T11:56:01.540Z,21.27
2022-10-01T11:58:55.901Z,21.52
2022-10-01T12:01:45.568Z,21.54
2022-10-01T12:04:47.117Z,21.62
2022-10-01T12:08:03.423Z,21.62
2022-10-01T12:10:38.987Z,21.63
2022-10-01T12:13:22.968Z,21.68
2022-10-01T12:16:08.816Z,21.69
2022-10-01T12:18:54.705Z,21.74
2022-10-01T12:21:37.416Z,21.72
2022-10-01T12:24:18.566Z,21.77
2022-10-01T12:27:24.213Z,22.13
2022-10-01T12:30:02.345Z,22.57
2022-10-01T12:33:12.818Z,22.66
2022-10-01T12:36:20.135Z,22.44
2022-10-01T12:39:16.667Z,22.22
2022-10-01T12:42:20.420Z,21.98
2022-10-01T12:45:43.264Z,21.70
2022-10-01T12:48:32.380Z,21.44
2022-10-01T12:51:53.222Z,21.38
2022-10-01T12:55:04.462Z,21.36
2022-10-01T12:57:43.575Z,21.22
2022-10-01T13:00:17.376Z,21.05
2022-10-01T13:03:35.413Z,20.87
2022-10-01T13:06:08.885Z,20.87
2022-10-01T13:15:03.278Z,21.86
2022-10-01T13:17:48.839Z,21.85
2022-10-01T13:20:31.345Z,21.72
2022-10-01T13:23:24.900Z,21.64
2022-10-01T13:26:39.772Z,21.59
2022-10-01T13:29:56.733Z,21.48
2022-10-01T13:32:37.461Z,21.43
2022-10-01T13:35:43.472Z,21.39
2022-10-01T13:38:29.364Z,21.41
2022-10-01T13:41:05.221Z,21.46
2022-10-01T13:43:34.336Z,21.64
2022-10-01T13:46:09.014Z,22.15
2022-10-01T13:48:38.145Z,22.52
2022-10-01T13:51:15.493Z,22.80
2022-10-01T13:53:54.961Z,23.01
2022-10-01T13:56:32.186Z,23.19
2022-10-01T13:58:59.546Z,23.33
2022-10-01T14:01:38.467Z,23.48
2022-10-01T14:04:28.599Z,23.48
2022-10-01T14:07:01.459Z,23.50
2022-10-01T14:09:41.258Z,23.48
2022-10-01T14:12:43.669Z,23.54
2022-10-01T14:15:39.592Z,23.60
2022-10-01T14:18:16.379Z,23.54
2022-10-01T14:21:15.471Z,23.51
2022-10-01T14:24:05.483Z,23.58
2022-10-01T14:27:34.046Z,23.58
2022-10-01T14:30:24.512Z,23.54
2022-10-01T14:33:25.195Z,23.48
2022-10-01T14:36:29.813Z,23.42
2022-10-01T14:39:23.062Z,23.28
2022-10-01T14:41:52.840Z,23.19
2022-10-01T14:44:40.454Z,23.14
2022-10-01T14:47:24.317Z,23.36
2022-10-01T14:49:52.075Z,23.59
2022-10-01T14:52:32.973Z,23.53
2022-10-01T14:55:06.122Z,23.39
2022-10-01T14:57:49.630Z,23.20
2022-10-01T15:00:22.623Z,23.05
2022-10-01T15:03:15.798Z,22.93
2022-10-01T15:05:44.062Z,22.80
2022-10-01T15:08:20.563Z,22.71
2022-10-01T15:10:53.077Z,22.51
2022-10-01T15:13:33.454Z,22.37
2022-10-01T15:16:00.778Z,22.26
2022-10-01T15:18:28.572Z,22.14
2022-10-01T15:21:05.768Z,22.02
2022-10-01T15:23:41.896Z,21.93
2022-10-01T15:26:12.295Z,21.85
2022-10-01T15:28:39.296Z,21.75
2022-10-01T15:31:07.878Z,21.67
2022-10-01T15:33:38.051Z,21.56
2022-10-01T15:36:07.495Z,21.51
2022-10-01T15:38:35.221Z,21.47
2022-10-01T15:41:29.891Z,21.42
2022-10-01T15:43:52.525Z,21.28
2022-10-01T15:46:31.546Z,21.22
2022-10-01T15:49:19.675Z,21.16
2022-10-01T15:52:19.721Z,21.07
2022-10-01T15:54:47.622Z,20.96
2022-10-01T15:57:23.740Z,20.87
2022-10-01T15:59:52.824Z,20.80
2022-10-01T16:02:26.551Z,20.74
2022-10-01T16:04:56.790Z,20.69
2022-10-01T16:07:29.812Z,20.63
2022-10-01T16:09:59.423Z,20.58
2022-10-01T16:12:28.535Z,20.51
2022-10-01T16:15:00.720Z,20.44
2022-10-01T16:17:35.453Z,20.32
2022-10-01T16:20:39.253Z,20.23
2022-10-01T16:23:26.198Z,20.15
2022-10-01T16:25:53.150Z,20.11
2022-10-01T16:28:28.953Z,20.08
2022-10-01T16:30:56.168Z,20.04
2022-10-01T16:33:23.083Z,19.99
2022-10-01T16:35:50.446Z,19.97
2022-10-01T16:38:17.400Z,19.97
2022-10-01T16:40:48.067Z,20.00
2022-10-01T16:43:24.481Z,19.98
2022-10-01T16:45:51.803Z,19.94
2022-10-01T16:48:22.500Z,19.87
2022-10-01T16:50:49.810Z,19.77
2022-10-01T16:53:18.393Z,19.65
2022-10-01T16:55:46.328Z,19.57
2022-10-01T16:58:13.551Z,19.53
2022-10-01T17:00:40.786Z,19.45
2022-10-01T17:03:15.495Z,19.41
2022-10-01T17:05:42.526Z,19.30
2022-10-01T17:08:12.731Z,19.23
2022-10-01T17:10:44.028Z,19.21
2022-10-01T17:13:15.490Z,19.22
2022-10-01T17:15:43.361Z,19.30
2022-10-01T17:18:10.325Z,19.38
2022-10-01T17:20:40.264Z,19.48
2022-10-01T17:23:07.742Z,19.49
2022-10-01T17:25:37.307Z,19.52
2022-10-01T17:28:08.345Z,19.54
2022-10-01T17:30:35.609Z,19.57
2022-10-01T17:33:02.683Z,19.91
2022-10-01T17:35:31.141Z,19.89
2022-10-01T17:37:58.803Z,19.50
2022-10-01T17:40:26.188Z,19.38
2022-10-01T17:42:53.161Z,19.51
2022-10-01T17:45:20.326Z,19.29
2022-10-01T17:47:49.238Z,19.15
2022-10-01T17:50:16.991Z,19.16
2022-10-01T17:52:47.763Z,19.10
2022-10-01T17:55:14.839Z,19.06
2022-10-01T17:57:41.805Z,19.04
2022-10-01T18:00:09.561Z,19.16
2022-10-01T18:02:42.612Z,19.12
2022-10-01T18:05:12.864Z,19.28
2022-10-01T18:07:40.568Z,19.01
2022-10-01T18:10:10.370Z,18.91
2022-10-01T18:12:37.289Z,18.93
2022-10-01T18:15:04.622Z,18.98
2022-10-01T18:17:36.585Z,19.02
2022-10-01T18:20:06.326Z,19.08
2022-10-01T18:22:34.343Z,19.08
2022-10-01T18:25:01.403Z,19.03
2022-10-01T18:27:28.371Z,19.07
2022-10-01T18:29:55.335Z,18.94
2022-10-01T18:32:24.950Z,18.92
2022-10-01T18:35:00.328Z,18.81
2022-10-01T18:37:44.049Z,18.75
2022-10-01T18:40:19.376Z,18.80
2022-10-01T18:42:54.409Z,18.70
2022-10-01T18:46:04.331Z,18.65
2022-10-01T18:49:16.806Z,18.57
2022-10-01T18:52:31.436Z,18.50
2022-10-01T18:55:40.616Z,18.55
2022-10-01T18:58:57.115Z,18.53
2022-10-01T19:02:01.253Z,18.54
2022-10-01T19:05:20.183Z,18.54
2022-10-01T19:08:27.194Z,18.55
2022-10-01T19:11:18.128Z,18.57
2022-10-01T19:13:59.398Z,18.57
2022-10-01T19:16:45.998Z,18.58
2022-10-01T19:22:50.827Z,18.71
2022-10-01T19:25:35.399Z,18.65
2022-10-01T19:40:21.869Z,17.61
2022-10-01T19:43:18.153Z,17.52
2022-10-01T19:45:55.196Z,17.52
2022-10-01T19:48:30.296Z,17.52
2022-10-01T19:51:08.260Z,17.54
2022-10-01T19:53:40.116Z,17.58
2022-10-01T19:56:11.213Z,17.69
2022-10-01T19:58:38.134Z,17.71
2022-10-01T20:01:05.394Z,17.71
2022-10-01T20:03:38.387Z,17.76
2022-10-01T20:06:30.600Z,17.84
2022-10-01T20:09:07.386Z,17.92
2022-10-01T20:11:44.209Z,17.96
2022-10-01T20:15:08.736Z,17.98
2022-10-01T20:18:14.746Z,18.07
2022-10-01T20:21:10.728Z,18.02
2022-10-01T20:23:58.605Z,17.91
2022-10-01T20:26:40.349Z,17.90
2022-10-01T20:29:46.057Z,17.93
2022-10-01T20:32:21.935Z,17.99
2022-10-01T20:35:23.903Z,18.01
2022-10-01T20:38:07.121Z,18.05
2022-10-01T20:40:55.910Z,18.21
2022-10-01T20:43:33.803Z,18.13
2022-10-01T20:46:09.291Z,18.03
2022-10-01T20:48:38.402Z,17.90
2022-10-01T20:51:43.095Z,17.80
2022-10-01T20:54:24.402Z,17.72
2022-10-01T20:57:07.652Z,17.64
2022-10-01T20:59:41.369Z,17.64
2022-10-01T21:03:07.193Z,17.68
2022-10-01T21:05:41.859Z,17.87
2022-10-01T21:08:35.886Z,17.77
2022-10-01T21:11:09.387Z,17.86
2022-10-01T21:13:43.893Z,17.74
2022-10-01T21:16:54.695Z,17.63
2022-10-01T21:20:02.791Z,17.56
2022-10-01T21:23:41.086Z,17.62
2022-10-01T21:26:29.538Z,17.66
2022-10-01T21:32:19.907Z,18.02
2022-10-01T21:35:11.707Z,17.74
2022-10-01T21:37:47.379Z,17.60
2022-10-01T21:41:15.534Z,17.58
2022-10-01T21:44:21.452Z,17.41
2022-10-01T21:47:33.611Z,17.45
2022-10-01T21:56:55.306Z,17.26
2022-10-01T21:59:52.484Z,17.30
2022-10-01T22:02:38.167Z,17.39
2022-10-01T22:05:37.920Z,17.43
2022-10-01T22:11:40.246Z,17.49
2022-10-01T22:14:19.380Z,17.47
2022-10-01T22:16:52.684Z,17.66
2022-10-01T22:19:33.261Z,17.69
2022-10-01T22:22:13.146Z,17.49
2022-10-01T22:24:54.430Z,17.21
2022-10-01T22:27:32.269Z,17.11
2022-10-01T22:30:11.373Z,17.05
2022-10-01T22:32:49.825Z,17.06
2022-10-01T22:35:22.642Z,17.09
2022-10-01T22:38:00.283Z,17.19
2022-10-01T22:40:32.592Z,17.16
2022-10-01T22:43:09.637Z,17.04
2022-10-01T22:46:14.901Z,17.09
2022-10-01T22:48:55.750Z,17.00
2022-10-01T22:52:07.470Z,16.97
2022-10-01T22:55:16.376Z,17.14
2022-10-01T22:58:44.595Z,16.99
2022-10-01T23:01:50.782Z,16.99
2022-10-01T23:05:09.534Z,17.03
2022-10-01T23:08:07.546Z,16.95
2022-10-01T23:10:52.799Z,16.75
2022-10-01T23:13:30.174Z,16.64
2022-10-01T23:16:23.588Z,16.59
2022-10-01T23:19:23.653Z,16.52
2022-10-01T23:22:12.076Z,16.46
2022-10-01T23:25:06.247Z,16.58
2022-10-01T23:28:07.137Z,16.48
2022-10-01T23:30:59.645Z,16.43
2022-10-01T23:34:23.796Z,16.52
2022-10-01T23:37:31.023Z,16.57
2022-10-01T23:40:11.643Z,16.70
2022-10-01T23:43:25.257Z,16.81
2022-10-01T23:46:00.278Z,16.71
2022-10-01T23:49:16.008Z,16.66
2022-10-01T23:52:06.156Z,16.51
2022-10-01T23:55:23.477Z,16.64
2022-10-01T23:57:58.631Z,16.53
